Time;durP1;ratioP1;P1;durP2;ratioP2;P2;SDS_P1;SDS_P2;PMS_P1;PMS_P2;Temp;Humidity;BMP_temperature;BMP_pressure;BME280_temperature;BME280_humidity;BME280_pressure;Samples;Min_cycle;Max_cycle;Signal;HPM_P1;HPM_P2
2022/07/11 00:01:36;;;;;;;4.72;3.00;;;;;;;15.53;89.04;99111.91;5124863;28;20024;-71
2022/07/11 00:04:02;;;;;;;5.47;3.40;;;;;;;15.60;90.16;99118.75;5124817;28;20023;-71
2022/07/11 00:06:27;;;;;;;4.43;3.33;;;;;;;15.60;91.01;99115.25;5124833;28;20027;-71
2022/07/11 00:08:52;;;;;;;6.10;3.20;;;;;;;15.47;91.11;99114.75;5124746;28;20034;-71
2022/07/11 00:11:18;;;;;;;3.80;2.97;;;;;;;15.49;91.59;99122.66;5124683;28;20214;-71
2022/07/11 00:13:43;;;;;;;9.88;3.05;;;;;;;15.49;91.44;99106.75;5124608;28;20050;-71
2022/07/11 00:16:09;;;;;;;6.97;3.30;;;;;;;15.47;91.85;99109.44;5124625;28;20050;-71
2022/07/11 00:18:34;;;;;;;6.50;3.72;;;;;;;15.51;91.46;99107.59;5124633;28;20026;-71
2022/07/11 00:20:59;;;;;;;5.40;3.25;;;;;;;15.41;91.26;99112.28;5124656;28;20242;-71
2022/07/11 00:23:25;;;;;;;7.65;3.42;;;;;;;15.51;90.75;99111.13;5124441;28;20352;-71
2022/07/11 00:25:50;;;;;;;6.60;3.42;;;;;;;15.59;89.84;99103.75;5124358;28;20044;-71
2022/07/11 00:28:16;;;;;;;8.57;3.50;;;;;;;15.64;89.93;99107.16;5124496;28;20023;-71
2022/07/11 00:30:41;;;;;;;6.75;3.17;;;;;;;15.64;91.17;99106.28;5124472;28;20019;-71
2022/07/11 00:33:07;;;;;;;6.38;3.40;;;;;;;15.57;91.37;99100.31;5124447;28;20019;-71
2022/07/11 00:35:32;;;;;;;4.90;3.22;;;;;;;15.46;90.80;99099.75;5124452;28;20087;-71
2022/07/11 00:37:57;;;;;;;6.22;3.30;;;;;;;15.51;90.97;99103.16;5124396;28;20350;-71
2022/07/11 00:40:23;;;;;;;7.18;3.25;;;;;;;15.53;91.24;99098.66;5124477;28;20237;-71
2022/07/11 00:42:48;;;;;;;5.18;3.65;;;;;;;15.52;91.84;99099.56;5124407;28;20091;-71
2022/07/11 00:45:14;;;;;;;6.68;3.50;;;;;;;15.56;91.48;99108.31;5124369;28;20022;-71
2022/07/11 00:47:39;;;;;;;5.45;3.00;;;;;;;15.54;90.88;99100.41;5124364;28;20047;-71
2022/07/11 00:50:05;;;;;;;5.95;3.67;;;;;;;15.48;90.73;99095.28;5124359;28;20023;-71
2022/07/11 00:52:32;;;;;;;5.53;3.55;;;;;;;15.54;91.39;99100.41;5124488;28;20023;-71
2022/07/11 00:54:58;;;;;;;6.00;3.50;;;;;;;15.54;91.90;99100.41;5124319;28;20039;-71
2022/07/11 00:57:24;;;;;;;6.03;4.40;;;;;;;15.56;91.98;99087.94;5124300;28;20031;-71
2022/07/11 00:59:50;;;;;;;7.47;3.80;;;;;;;15.58;91.78;99096.72;5124223;28;20027;-71
2022/07/11 01:02:15;;;;;;;6.97;4.05;;;;;;;15.58;91.93;99091.44;5124385;28;20086;-71
2022/07/11 01:04:41;;;;;;;6.45;3.40;;;;;;;15.62;91.42;99093.06;5124206;28;20253;-71
2022/07/11 01:07:06;;;;;;;5.47;3.95;;;;;;;15.60;92.20;99089.56;5124236;28;20020;-71
2022/07/11 01:09:32;;;;;;;7.72;3.63;;;;;;;15.58;92.50;99091.44;5124136;28;20448;-71
2022/07/11 01:11:58;;;;;;;5.20;3.35;;;;;;;15.62;91.61;99093.06;5124165;28;20060;-71
2022/07/11 01:14:23;;;;;;;9.63;3.58;;;;;;;15.63;91.47;99089.47;5124113;28;20028;-71
2022/07/11 01:16:51;;;;;;;4.72;3.30;;;;;;;15.66;91.47;99084.06;5124022;28;20023;-71
2022/07/11 01:19:16;;;;;;;4.95;3.42;;;;;;;15.65;91.94;99078.81;5124313;28;20016;-71
2022/07/11 01:21:43;;;;;;;7.15;3.60;;;;;;;15.65;92.32;99077.03;5124060;28;20042;-71
2022/07/11 01:24:09;;;;;;;5.03;3.45;;;;;;;15.70;91.72;99082.19;5123994;28;20019;-71
2022/07/11 01:26:35;;;;;;;5.00;3.58;;;;;;;15.70;90.92;99084.84;5123916;28;20092;-71
2022/07/11 01:29:11;;;;;;;5.07;3.65;;;;;;;15.70;91.20;99085.72;5123843;28;20037;-71
2022/07/11 01:31:41;;;;;;;8.98;3.70;;;;;;;15.71;91.18;99084.81;5123933;28;20070;-71
2022/07/11 01:34:07;;;;;;;9.95;3.38;;;;;;;15.71;91.02;99071.53;5123901;28;20026;-71
2022/07/11 01:36:33;;;;;;;4.50;3.30;;;;;;;15.63;92.37;99078.84;5125608;28;20308;-71
2022/07/11 01:38:58;;;;;;;4.95;3.40;;;;;;;15.54;93.53;99068.56;5127630;28;20024;-71
2022/07/11 01:41:24;;;;;;;7.68;3.47;;;;;;;15.42;93.42;99074.25;5127620;28;20024;-71
2022/07/11 01:43:50;;;;;;;5.32;3.78;;;;;;;15.40;92.93;99064.63;5127472;28;20023;-71
2022/07/11 01:46:16;;;;;;;9.63;3.70;;;;;;;15.40;92.28;99070.78;5127458;28;20019;-71
2022/07/11 01:48:41;;;;;;;5.00;3.63;;;;;;;15.44;92.05;99066.25;5127645;28;20020;-71
2022/07/11 01:51:07;;;;;;;8.52;3.78;;;;;;;15.46;92.68;99078.53;5127374;28;20027;-71
2022/07/11 01:53:32;;;;;;;5.70;3.85;;;;;;;15.52;92.71;99074.81;5127229;28;20024;-71
2022/07/11 01:55:58;;;;;;;8.30;3.90;;;;;;;15.51;93.51;99071.31;5127221;28;20238;-71
2022/07/11 01:58:23;;;;;;;4.15;3.33;;;;;;;15.54;93.18;99073.88;5127305;28;20019;-71
2022/07/11 02:00:49;;;;;;;7.18;3.42;;;;;;;15.53;93.56;99061.50;5127166;28;20034;-71
2022/07/11 02:03:14;;;;;;;5.97;4.05;;;;;;;15.54;92.50;99071.22;5127107;28;20126;-71
2022/07/11 02:05:39;;;;;;;6.70;3.63;;;;;;;15.57;91.93;99067.59;5127062;28;20315;-71
2022/07/11 02:08:12;;;;;;;5.18;3.55;;;;;;;15.56;92.35;99066.72;5127107;28;20042;-71
2022/07/11 02:10:48;;;;;;;5.93;3.78;;;;;;;15.51;93.00;99068.66;5127022;28;20219;-71
2022/07/11 02:13:16;;;;;;;7.30;3.83;;;;;;;15.55;92.52;99069.41;5126907;28;20028;-71
2022/07/11 02:15:43;;;;;;;6.10;3.28;;;;;;;15.53;92.30;99066.81;5126916;28;20023;-71
2022/07/11 02:18:10;;;;;;;8.48;4.22;;;;;;;15.48;94.08;99063.47;5126887;28;20090;-71
2022/07/11 02:20:37;;;;;;;8.10;3.67;;;;;;;15.47;93.13;99061.69;5127045;28;20019;-71
2022/07/11 02:23:03;;;;;;;14.70;4.30;;;;;;;15.45;93.52;99068.84;5126706;28;20019;-71
2022/07/11 02:25:29;;;;;;;10.20;3.78;;;;;;;15.37;93.44;99060.25;5126472;28;20051;-71
2022/07/11 02:27:56;;;;;;;6.18;3.78;;;;;;;15.33;93.68;99058.59;5126738;28;20048;-71
2022/07/11 02:30:22;;;;;;;11.60;4.00;;;;;;;15.37;93.58;99057.59;5126868;28;20031;-71
2022/07/11 02:32:49;;;;;;;10.45;3.65;;;;;;;15.38;93.48;99050.53;5126969;28;20023;-71
2022/07/11 02:35:14;;;;;;;7.70;3.80;;;;;;;15.44;93.67;99059.13;5126466;28;20215;-71
2022/07/11 02:37:39;;;;;;;3.50;3.05;;;;;;;15.47;93.55;99061.69;5126470;28;20019;-71
2022/07/11 02:40:06;;;;;;;5.95;3.53;;;;;;;15.48;93.85;99052.84;5126377;28;20019;-71
2022/07/11 02:42:31;;;;;;;7.80;3.50;;;;;;;15.48;93.86;99058.16;5126419;28;20024;-71
2022/07/11 02:44:56;;;;;;;5.40;3.60;;;;;;;15.47;93.91;99055.56;5126363;28;20015;-71
2022/07/11 02:47:22;;;;;;;7.22;3.58;;;;;;;15.47;94.00;99056.38;5126203;28;20323;-71
2022/07/11 02:49:48;;;;;;;5.30;3.97;;;;;;;15.47;93.84;99056.38;5126205;28;20026;-71
2022/07/11 02:52:14;;;;;;;8.25;3.92;;;;;;;15.48;94.11;99063.47;5126196;28;20030;-71
2022/07/11 02:54:39;;;;;;;5.53;3.42;;;;;;;15.49;93.82;99056.34;5126252;28;20086;-71
2022/07/11 02:57:05;;;;;;;4.75;3.50;;;;;;;15.52;93.50;99064.22;5126069;28;20024;-71
2022/07/11 02:59:30;;;;;;;6.95;3.67;;;;;;;15.47;93.28;99060.84;5126106;28;20342;-71
2022/07/11 03:01:55;;;;;;;7.85;4.25;;;;;;;15.43;94.26;99060.06;5125955;28;20020;-71
2022/07/11 03:04:21;;;;;;;6.80;4.40;;;;;;;15.45;94.91;99063.56;5125891;28;20023;-71
2022/07/11 03:06:46;;;;;;;8.02;4.20;;;;;;;15.46;94.69;99057.31;5125854;28;20095;-71
2022/07/11 03:09:12;;;;;;;6.53;4.40;;;;;;;15.45;95.11;99066.22;5125809;28;20024;-71
2022/07/11 03:11:38;;;;;;;8.75;3.97;;;;;;;15.42;95.48;99061.00;5125793;28;20026;-71
2022/07/11 03:14:03;;;;;;;6.95;4.13;;;;;;;15.44;95.37;99061.78;5125705;28;20128;-71
2022/07/11 03:16:30;;;;;;;9.15;4.35;;;;;;;15.37;95.43;99065.56;5125762;28;20030;-71
2022/07/11 03:18:56;;;;;;;7.82;4.05;;;;;;;15.33;95.33;99063.91;5125636;28;20068;-71
2022/07/11 03:21:22;;;;;;;8.00;3.65;;;;;;;15.30;95.74;99057.81;5125623;28;20079;-71
2022/07/11 03:23:49;;;;;;;6.28;4.45;;;;;;;15.33;96.09;99069.22;5125499;28;20020;-71
2022/07/11 03:26:15;;;;;;;6.22;4.15;;;;;;;15.38;96.59;99067.31;5125527;28;20047;-71
2022/07/11 03:28:40;;;;;;;11.43;4.30;;;;;;;15.37;96.94;99065.56;5125373;28;20376;-71
2022/07/11 03:31:06;;;;;;;8.85;4.45;;;;;;;15.34;97.02;99065.63;5125439;28;20023;-71
2022/07/11 03:33:31;;;;;;;6.38;4.13;;;;;;;15.37;96.86;99068.22;5125310;28;20019;-71
2022/07/11 03:35:57;;;;;;;4.97;3.75;;;;;;;15.39;96.07;99069.06;5125267;28;20019;-71
2022/07/11 03:38:22;;;;;;;7.50;4.55;;;;;;;15.33;95.96;99063.91;5125252;28;20327;-71
2022/07/11 03:40:48;;;;;;;16.45;4.82;;;;;;;15.35;96.00;99071.81;5125253;28;20485;-71
2022/07/11 03:43:15;;;;;;;7.70;4.10;;;;;;;15.26;95.62;99067.66;5125429;28;20199;-71
2022/07/11 03:45:40;;;;;;;9.38;4.43;;;;;;;15.28;95.95;99073.78;5125141;28;20019;-71
2022/07/11 03:48:07;;;;;;;5.75;4.07;;;;;;;15.34;96.17;99078.88;5125088;28;20087;-71
2022/07/11 03:50:32;;;;;;;5.18;3.85;;;;;;;15.33;95.90;99066.56;5125263;28;20016;-71
2022/07/11 03:52:58;;;;;;;8.85;3.75;;;;;;;15.33;96.10;99063.91;5125095;28;20023;-71
2022/07/11 03:55:24;;;;;;;5.80;3.88;;;;;;;15.32;96.15;99064.81;5125266;28;20090;-71
2022/07/11 03:57:49;;;;;;;8.02;4.32;;;;;;;15.37;95.07;99068.22;5124912;28;20023;-71
2022/07/11 04:00:14;;;;;;;7.85;4.32;;;;;;;15.33;94.51;99074.50;5124479;28;20027;-71
2022/07/11 04:02:40;;;;;;;8.52;3.97;;;;;;;15.40;94.54;99070.78;5124875;28;20020;-71
2022/07/11 04:05:06;;;;;;;5.30;3.78;;;;;;;15.37;94.11;99065.56;5124815;28;20015;-71
2022/07/11 04:07:32;;;;;;;6.68;3.63;;;;;;;15.39;94.03;99063.75;5124853;28;20027;-71
2022/07/11 04:09:58;;;;;;;6.70;4.15;;;;;;;15.45;93.45;99065.31;5124757;28;20245;-71
2022/07/11 04:12:24;;;;;;;5.47;3.83;;;;;;;15.49;93.52;99059.00;5124711;28;20019;-71
2022/07/11 04:14:49;;;;;;;5.80;4.07;;;;;;;15.53;93.23;99061.50;5124627;28;20041;-71
2022/07/11 04:17:15;;;;;;;7.03;4.07;;;;;;;15.55;93.38;99059.69;5124620;28;20019;-71
2022/07/11 04:19:42;;;;;;;5.63;3.60;;;;;;;15.57;94.54;99052.56;5124658;28;20047;-71
2022/07/11 04:22:08;;;;;;;7.22;3.90;;;;;;;15.59;94.41;99056.00;5124674;28;20046;-71
2022/07/11 04:24:33;;;;;;;4.70;3.67;;;;;;;15.64;94.49;99053.19;5124610;28;20234;-71
2022/07/11 04:26:59;;;;;;;6.45;3.92;;;;;;;15.60;93.27;99055.06;5124458;28;20039;-71
2022/07/11 04:29:25;;;;;;;8.35;3.90;;;;;;;15.67;92.93;99055.75;5124486;28;20122;-71
2022/07/11 04:31:50;;;;;;;8.15;3.97;;;;;;;15.59;93.39;99048.03;5124500;28;20274;-71
2022/07/11 04:34:16;;;;;;;12.98;4.45;;;;;;;15.61;93.41;99059.50;5124424;28;20019;-71
2022/07/11 04:36:42;;;;;;;11.25;4.25;;;;;;;15.71;94.82;99060.91;5124442;28;20090;-71
2022/07/11 04:39:08;;;;;;;8.10;3.83;;;;;;;15.80;93.72;99060.63;5124396;28;20189;-71
2022/07/11 04:41:33;;;;;;;8.10;4.18;;;;;;;15.76;92.83;99052.81;5124461;28;20227;-71
2022/07/11 04:43:59;;;;;;;10.80;4.18;;;;;;;15.91;94.27;99063.75;5124469;28;20020;-71
2022/07/11 04:46:24;;;;;;;7.38;4.15;;;;;;;15.95;93.73;99065.38;5124441;28;20068;-71
2022/07/11 04:48:50;;;;;;;7.55;4.20;;;;;;;16.00;93.84;99058.16;5124324;28;20023;-71
2022/07/11 04:51:17;;;;;;;7.63;4.13;;;;;;;16.12;93.96;99068.34;5124351;28;20029;-71
2022/07/11 04:53:42;;;;;;;7.32;4.55;;;;;;;16.23;93.32;99070.66;5124490;28;20023;-71
2022/07/11 04:56:08;;;;;;;6.60;4.68;;;;;;;16.27;92.79;99059.84;5124335;28;20350;-71
2022/07/11 04:58:33;;;;;;;7.97;4.18;;;;;;;16.44;91.66;99064.59;5124222;28;20020;-71
2022/07/11 05:00:59;;;;;;;7.72;4.05;;;;;;;16.75;90.13;99060.78;5124509;28;20207;-71
2022/07/11 05:03:24;;;;;;;13.95;4.25;;;;;;;16.86;89.17;99063.00;5124251;28;20027;-71
2022/07/11 05:05:50;;;;;;;5.07;3.65;;;;;;;16.95;88.45;99068.84;5124188;28;20073;-71
2022/07/11 05:08:15;;;;;;;7.00;3.58;;;;;;;17.08;87.98;99070.13;5124190;28;20099;-71
2022/07/11 05:10:40;;;;;;;9.27;4.05;;;;;;;17.20;87.80;99064.31;5124562;28;20023;-71
2022/07/11 05:13:06;;;;;;;5.38;3.72;;;;;;;17.23;88.14;99072.19;5128028;28;20262;-71
2022/07/11 05:15:31;;;;;;;7.18;4.15;;;;;;;17.31;88.02;99073.69;5128022;28;20090;-71
2022/07/11 05:17:57;;;;;;;6.72;3.72;;;;;;;17.50;87.71;99075.59;5128159;28;20019;-71
2022/07/11 05:20:22;;;;;;;10.13;3.25;;;;;;;17.61;87.02;99077.81;5128025;28;20023;-71
2022/07/11 05:22:48;;;;;;;8.63;4.25;;;;;;;17.71;86.06;99076.50;5127889;28;20090;-71
2022/07/11 05:25:13;;;;;;;5.10;4.10;;;;;;;17.98;86.18;99080.69;5127848;28;20019;-71
2022/07/11 05:27:39;;;;;;;6.18;3.53;;;;;;;19.02;83.51;99090.28;5127672;28;20336;-71
2022/07/11 05:30:05;;;;;;;5.10;3.40;;;;;;;20.53;74.78;99089.91;5127987;28;20090;-71
2022/07/11 05:32:31;;;;;;;6.78;3.10;;;;;;;22.40;68.62;99088.25;5128130;28;20189;-71
2022/07/11 05:35:01;;;;;;;4.07;3.08;;;;;;;23.46;64.39;99101.34;5127667;28;20024;-71
2022/07/11 05:37:27;;;;;;;8.32;2.95;;;;;;;23.90;62.30;99107.41;5127768;28;20031;-71
2022/07/11 05:39:53;;;;;;;7.07;3.15;;;;;;;24.61;59.92;99113.34;5127584;28;20019;-71
2022/07/11 05:42:18;;;;;;;6.10;2.40;;;;;;;25.29;56.35;99104.91;5127533;28;20019;-71
2022/07/11 05:44:43;;;;;;;4.35;2.42;;;;;;;25.77;54.52;99115.81;5127452;28;20433;-71
2022/07/11 05:47:09;;;;;;;3.53;2.38;;;;;;;25.35;54.58;99100.06;5127464;28;20030;-71
2022/07/11 05:49:34;;;;;;;7.20;2.75;;;;;;;25.16;55.92;99106.72;5127413;28;20019;-71
2022/07/11 05:52:00;;;;;;;4.50;2.40;;;;;;;24.94;55.69;99087.69;5127391;28;20086;-71
2022/07/11 05:54:26;;;;;;;4.78;2.53;;;;;;;24.03;60.81;99097.59;5127330;28;20327;-71
2022/07/11 05:56:51;;;;;;;3.67;2.38;;;;;;;25.55;55.96;99102.19;5127261;28;20019;-71
2022/07/11 05:59:17;;;;;;;7.63;2.17;;;;;;;25.24;55.57;99098.97;5127218;28;20330;-71
2022/07/11 06:01:42;;;;;;;11.90;2.80;;;;;;;26.31;52.89;99106.38;5127217;28;20024;-71
2022/07/11 06:04:07;;;;;;;5.90;2.10;;;;;;;26.54;49.53;99108.19;5127196;28;20015;-71
2022/07/11 06:06:33;;;;;;;5.45;2.08;;;;;;;27.03;49.88;99103.44;5127340;28;20245;-71
2022/07/11 06:08:58;;;;;;;11.35;2.33;;;;;;;26.33;48.03;99093.63;5127054;28;20311;-71
2022/07/11 06:11:24;;;;;;;5.57;2.33;;;;;;;25.35;52.05;99092.88;5126993;28;20023;-71
2022/07/11 06:13:50;;;;;;;4.95;2.30;;;;;;;26.66;49.28;99099.16;5126880;28;20087;-71
2022/07/11 06:16:16;;;;;;;7.00;2.28;;;;;;;26.16;49.32;99081.41;5126926;28;20065;-71
2022/07/11 06:18:42;;;;;;;4.35;2.00;;;;;;;26.84;49.72;99092.34;5126765;28;20019;-71
2022/07/11 06:21:08;;;;;;;8.30;2.30;;;;;;;26.30;50.16;99077.66;5126797;28;20034;-71
2022/07/11 06:23:36;;;;;;;5.75;2.20;;;;;;;27.34;48.96;99096.50;5126385;28;20023;-71
2022/07/11 06:26:04;;;;;;;5.03;2.45;;;;;;;26.17;49.18;99083.13;5126591;28;20239;-71
2022/07/11 06:28:30;;;;;;;4.82;2.30;;;;;;;26.83;48.47;99090.63;5126635;28;20030;-71
2022/07/11 06:30:55;;;;;;;5.88;2.40;;;;;;;27.91;48.26;99099.91;5126704;28;20027;-71
2022/07/11 06:33:21;;;;;;;5.60;2.05;;;;;;;27.77;49.15;99103.72;5126482;28;20031;-71
2022/07/11 06:35:47;;;;;;;4.95;2.00;;;;;;;28.10;47.46;99103.69;5126595;28;20428;-71
2022/07/11 06:38:14;;;;;;;5.10;2.30;;;;;;;26.81;46.59;99089.88;5126471;28;20046;-71
2022/07/11 06:40:41;;;;;;;7.47;2.00;;;;;;;25.97;48.53;99074.78;5126461;28;20023;-71
2022/07/11 06:43:07;;;;;;;4.15;1.80;;;;;;;24.89;51.06;99079.06;5126423;28;20023;-71
2022/07/11 06:45:33;;;;;;;6.28;2.22;;;;;;;26.02;48.55;99083.41;5126278;28;20019;-71
2022/07/11 06:47:59;;;;;;;3.90;2.05;;;;;;;26.77;48.05;99093.81;5126268;28;20026;-71
2022/07/11 06:50:24;;;;;;;5.50;2.17;;;;;;;25.92;49.30;99082.34;5126359;28;20024;-71
2022/07/11 06:52:50;;;;;;;7.57;1.90;;;;;;;27.75;47.43;99110.25;5126176;28;20023;-71
2022/07/11 06:55:15;;;;;;;6.63;2.22;;;;;;;27.40;46.93;99080.66;5126059;28;20047;-71
2022/07/11 06:57:40;;;;;;;5.97;2.03;;;;;;;28.11;46.41;99088.28;5126142;28;20031;-71
2022/07/11 07:00:08;;;;;;;5.93;2.10;;;;;;;28.89;43.61;99095.94;5126022;28;20020;-71
2022/07/11 07:02:33;;;;;;;9.30;2.03;;;;;;;29.12;43.75;99097.56;5126146;28;20275;-71
2022/07/11 07:04:59;;;;;;;4.50;1.65;;;;;;;29.99;43.01;99098.81;5126015;28;20020;-71
2022/07/11 07:07:25;;;;;;;5.57;2.25;;;;;;;30.54;40.88;99095.44;5126175;28;20082;-71
2022/07/11 07:09:52;;;;;;;11.40;2.35;;;;;;;29.78;42.12;99077.19;5125893;28;20237;-71
2022/07/11 07:12:17;;;;;;;4.97;2.28;;;;;;;29.90;42.70;99092.34;5126149;28;20024;-71
2022/07/11 07:14:43;;;;;;;5.53;1.90;;;;;;;30.08;42.69;99097.97;5125751;28;20026;-71
2022/07/11 07:17:08;;;;;;;7.20;2.15;;;;;;;28.80;42.81;99080.50;5125710;28;20333;-71
2022/07/11 07:19:34;;;;;;;7.82;2.88;;;;;;;27.75;45.37;99083.19;5125688;28;20027;-71
2022/07/11 07:21:59;;;;;;;7.53;2.45;;;;;;;27.34;46.50;99083.84;5125714;28;20045;-71
2022/07/11 07:24:24;;;;;;;9.10;2.33;;;;;;;28.70;45.56;99106.66;5125546;28;20019;-71
2022/07/11 07:26:50;;;;;;;5.30;2.50;;;;;;;28.97;44.34;99103.41;5125311;28;20043;-71
2022/07/11 07:29:15;;;;;;;6.30;2.38;;;;;;;30.09;42.12;99103.22;5125527;28;20042;-71
2022/07/11 07:31:40;;;;;;;6.72;2.45;;;;;;;30.40;41.24;99109.47;5125591;28;20023;-71
2022/07/11 07:34:08;;;;;;;6.63;2.53;;;;;;;30.59;40.28;99102.16;5124679;27;20338;-71
2022/07/11 07:36:33;;;;;;;7.63;2.30;;;;;;;30.24;41.45;99099.16;5125643;28;20026;-71
2022/07/11 07:38:59;;;;;;;6.47;2.20;;;;;;;30.57;40.77;99101.47;5125422;28;20042;-71
2022/07/11 07:41:24;;;;;;;7.05;2.08;;;;;;;29.74;42.76;99078.44;5125521;28;20087;-71
2022/07/11 07:43:51;;;;;;;6.32;1.90;;;;;;;29.87;43.11;99089.03;5125342;28;20011;-71
2022/07/11 07:46:16;;;;;;;5.43;2.00;;;;;;;29.30;43.07;99089.66;5125208;28;20015;-71
2022/07/11 07:48:42;;;;;;;13.88;2.03;;;;;;;28.85;43.09;99086.38;5125449;28;20086;-71
2022/07/11 07:51:08;;;;;;;8.60;2.03;;;;;;;29.19;43.00;99087.91;5125093;28;20026;-71
2022/07/11 07:53:33;;;;;;;5.25;1.75;;;;;;;29.44;43.24;99093.84;5125245;28;20022;-71
2022/07/11 07:55:58;;;;;;;5.78;1.70;;;;;;;30.60;41.66;99097.59;5125170;28;20020;-71
2022/07/11 07:58:24;;;;;;;4.95;1.40;;;;;;;31.27;39.14;99095.69;5125116;28;20047;-71
2022/07/11 08:03:33;;;;;;;4.25;1.23;;;;;;;30.12;42.77;99083.94;5125046;28;20368;-71
2022/07/11 08:05:58;;;;;;;6.55;1.67;;;;;;;30.02;41.10;99084.94;5124975;28;20039;-71
2022/07/11 08:08:24;;;;;;;4.35;1.58;;;;;;;27.95;44.44;99069.75;5124934;28;20245;-71
2022/07/11 08:10:50;;;;;;;6.75;1.67;;;;;;;28.09;45.23;99065.91;5124840;28;20027;-71
2022/07/11 08:13:16;;;;;;;4.20;1.27;;;;;;;29.01;44.23;99078.63;5124632;28;20045;-71
2022/07/11 08:15:41;;;;;;;4.00;1.45;;;;;;;29.49;43.06;99078.03;5124735;28;20016;-71
2022/07/11 08:18:07;;;;;;;7.95;1.80;;;;;;;29.36;42.22;99062.00;5124718;28;20023;-71
2022/07/11 08:20:33;;;;;;;4.65;1.42;;;;;;;29.54;41.84;99070.34;5124742;28;20039;-71
2022/07/11 08:23:00;;;;;;;3.63;1.50;;;;;;;29.43;41.78;99073.16;5124852;28;20031;-71
2022/07/11 08:25:25;;;;;;;4.93;1.83;;;;;;;30.66;41.19;99097.03;5124935;28;20346;-71
2022/07/11 08:27:51;;;;;;;4.03;1.60;;;;;;;29.86;39.92;99076.47;5124380;28;20031;-71
2022/07/11 08:30:16;;;;;;;4.43;1.40;;;;;;;28.49;44.24;99067.88;5124622;28;20035;-71
2022/07/11 08:32:42;;;;;;;2.38;1.27;;;;;;;27.48;45.19;99064.66;5124579;28;20358;-71
2022/07/11 08:35:09;;;;;;;6.20;1.70;;;;;;;26.77;47.73;99058.69;5124395;28;20024;-71
2022/07/11 08:37:36;;;;;;;5.78;1.50;;;;;;;26.56;48.28;99063.88;5124514;28;20049;-71
2022/07/11 08:40:02;;;;;;;4.03;1.48;;;;;;;26.16;50.24;99062.50;5124388;28;20022;-71
2022/07/11 08:42:30;;;;;;;5.03;1.30;;;;;;;25.62;50.97;99057.66;5124506;28;20023;-71
2022/07/11 08:44:57;;;;;;;3.67;1.30;;;;;;;25.46;50.97;99057.06;5125484;28;20083;-71
2022/07/11 08:47:24;;;;;;;4.43;1.50;;;;;;;25.35;51.73;99065.91;5128740;28;20024;-71
2022/07/11 08:49:51;;;;;;;3.75;1.30;;;;;;;25.39;50.34;99056.63;5128652;28;20215;-71
2022/07/11 08:52:19;;;;;;;5.63;1.25;;;;;;;25.16;51.15;99055.53;5128571;28;20023;-71
2022/07/11 08:54:44;;;;;;;2.72;1.10;;;;;;;25.71;50.40;99062.34;5128565;28;20060;-71
2022/07/11 08:57:10;;;;;;;5.68;0.88;;;;;;;26.06;49.37;99057.91;5128556;28;20024;-71
2022/07/11 08:59:41;;;;;;;5.25;1.15;;;;;;;26.98;49.42;99081.31;5128480;28;20053;-71
2022/07/11 09:02:08;;;;;;;2.17;0.90;;;;;;;28.70;43.85;99087.69;5128411;28;20024;-71
2022/07/11 09:04:34;;;;;;;5.75;1.27;;;;;;;28.98;44.22;99088.88;5128279;28;20016;-71
2022/07/11 09:07:01;;;;;;;2.97;1.13;;;;;;;28.35;44.29;99070.84;5128374;28;20103;-71
2022/07/11 09:09:28;;;;;;;4.15;1.13;;;;;;;28.88;43.54;99077.09;5128332;28;20020;-71
2022/07/11 09:11:58;;;;;;;3.28;1.02;;;;;;;27.56;45.65;99067.59;5128147;28;20028;-71
2022/07/11 09:14:25;;;;;;;2.47;1.00;;;;;;;29.02;43.76;99091.16;5128024;28;20019;-71
2022/07/11 09:17:02;;;;;;;2.80;0.80;;;;;;;28.21;44.09;99073.84;5128079;28;20016;-71
2022/07/11 09:19:30;;;;;;;5.00;1.17;;;;;;;28.10;45.36;99067.63;5128097;28;20080;-71
2022/07/11 09:27:54;;;;;;;2.03;0.80;;;;;;;27.80;44.15;99060.16;5127700;28;20051;-71
2022/07/11 09:30:22;;;;;;;4.30;1.10;;;;;;;27.14;46.04;99049.38;5127802;28;20200;-71
2022/07/11 09:33:00;;;;;;;1.73;0.90;;;;;;;28.48;44.28;99063.44;5128040;28;20051;-71
2022/07/11 09:35:37;;;;;;;2.42;1.20;;;;;;;28.53;43.39;99063.91;5127929;28;20023;-71
2022/07/11 09:38:04;;;;;;;2.22;0.85;;;;;;;27.57;45.00;99047.69;5128082;28;20051;-71
2022/07/11 09:40:30;;;;;;;4.38;0.85;;;;;;;28.97;43.71;99071.75;5127665;28;20027;-71
2022/07/11 09:42:58;;;;;;;1.05;0.93;;;;;;;28.99;43.59;99068.91;5127608;28;20034;-71
2022/07/11 09:45:26;;;;;;;2.35;0.90;;;;;;;28.96;42.83;99063.75;5127873;28;20031;-71
2022/07/11 09:47:56;;;;;;;1.77;0.80;;;;;;;28.21;43.97;99062.16;5127531;28;20035;-71
2022/07/11 09:50:23;;;;;;;4.72;0.98;;;;;;;27.16;46.51;99047.44;5127469;28;20238;-71
2022/07/11 09:53:07;;;;;;;1.42;0.88;;;;;;;26.90;47.35;99043.25;5127416;28;20271;-71
2022/07/11 09:55:35;;;;;;;2.65;0.98;;;;;;;27.51;46.13;99050.88;5127299;28;20024;-71
2022/07/11 09:58:10;;;;;;;2.20;0.90;;;;;;;28.49;44.39;99075.13;5126484;28;20023;-71
2022/07/11 10:00:38;;;;;;;1.38;0.93;;;;;;;27.66;45.10;99055.03;5109122;28;20425;-71
2022/07/11 10:03:04;;;;;;;2.92;1.20;;;;;;;26.82;46.97;99042.97;5127214;28;20082;-71
2022/07/11 10:05:30;;;;;;;1.30;0.90;;;;;;;26.46;47.56;99045.81;5127160;28;20046;-71
2022/07/11 10:07:57;;;;;;;0.80;0.80;;;;;;;27.38;46.84;99060.97;5127094;28;20019;-71
2022/07/11 10:10:23;;;;;;;2.50;1.05;;;;;;;29.47;44.87;99080.00;5127071;28;20227;-71
2022/07/11 10:12:51;;;;;;;2.58;0.80;;;;;;;29.15;42.60;99059.34;5127031;28;20083;-71
2022/07/11 10:15:20;;;;;;;3.10;1.52;;;;;;;27.39;45.93;99042.91;5126861;28;20050;-71
2022/07/11 10:18:12;;;;;;;3.20;1.05;;;;;;;27.30;47.24;99054.47;5126935;28;20019;-71
2022/07/11 10:20:57;;;;;;;2.17;1.00;;;;;;;27.30;47.67;99047.19;5126793;28;20028;-71
2022/07/11 10:23:41;;;;;;;2.75;0.88;;;;;;;27.81;46.73;99061.03;5127063;28;20016;-71
2022/07/11 10:26:14;;;;;;;1.52;1.00;;;;;;;28.19;46.09;99073.13;5126584;28;20036;-71
2022/07/11 10:28:46;;;;;;;2.03;1.15;;;;;;;27.61;46.87;99051.84;5126683;28;20057;-71
2022/07/11 10:31:25;;;;;;;2.90;1.20;;;;;;;27.88;46.13;99055.03;5126713;28;20026;-71
2022/07/11 10:34:15;;;;;;;2.33;0.90;;;;;;;27.22;47.81;99057.75;5126791;28;20031;-71
2022/07/11 10:36:43;;;;;;;3.88;0.90;;;;;;;26.70;48.24;99052.06;5126585;28;20028;-71
2022/07/11 10:39:12;;;;;;;4.68;1.05;;;;;;;26.20;49.21;99044.25;5126804;28;20086;-71
2022/07/11 10:41:38;;;;;;;2.65;1.00;;;;;;;26.00;49.92;99036.81;5126410;28;20024;-71
2022/07/11 10:44:04;;;;;;;2.08;0.82;;;;;;;25.90;50.75;99033.03;5126507;28;20060;-71
2022/07/11 10:46:30;;;;;;;1.50;1.08;;;;;;;27.26;48.95;99059.25;5126379;28;20027;-71
2022/07/11 10:49:20;;;;;;;1.13;0.98;;;;;;;26.10;51.35;99049.47;5126361;28;20023;-71
2022/07/11 10:52:03;;;;;;;0.65;0.60;;;;;;;27.18;48.55;99051.72;5126422;28;20061;-71
2022/07/11 10:54:55;;;;;;;3.25;0.95;;;;;;;28.41;45.66;99073.03;5126113;28;20024;-71
2022/07/11 10:57:44;;;;;;;1.05;0.80;;;;;;;28.47;45.78;99061.72;5126454;28;20023;-71
2022/07/11 11:00:14;;;;;;;1.17;0.70;;;;;;;27.66;45.63;99030.69;5126006;28;20072;-71
2022/07/11 11:03:01;;;;;;;2.80;0.90;;;;;;;28.47;45.23;99045.44;5125964;28;20031;-71
2022/07/11 11:05:44;;;;;;;4.03;0.73;;;;;;;29.43;43.92;99057.75;5125989;28;20031;-71
2022/07/11 11:08:40;;;;;;;1.00;0.70;;;;;;;29.69;43.00;99050.88;5125162;28;20023;-71
2022/07/11 11:11:24;;;;;;;1.92;1.08;;;;;;;29.45;43.02;99033.19;5126023;28;20037;-71
2022/07/11 11:14:27;;;;;;;2.78;0.93;;;;;;;28.35;45.25;99035.63;5125750;28;20023;-71
2022/07/11 11:16:53;;;;;;;2.33;0.98;;;;;;;28.64;43.52;99031.34;5125717;28;20046;-71
2022/07/11 11:19:55;;;;;;;2.17;1.00;;;;;;;28.63;44.33;99029.59;5125951;28;20198;-71
2022/07/11 11:22:22;;;;;;;3.90;1.10;;;;;;;27.76;45.86;99025.38;5023482;28;20032;-71
2022/07/11 11:24:51;;;;;;;1.65;0.95;;;;;;;27.99;45.04;99033.34;5023398;28;20093;-71
2022/07/11 11:27:26;;;;;;;2.28;1.08;;;;;;;28.71;45.69;99031.66;5023201;28;20100;-71
2022/07/11 11:29:56;;;;;;;6.85;1.75;;;;;;;28.14;46.25;99018.53;5023318;28;20034;-71
2022/07/11 11:32:28;;;;;;;1.88;1.05;;;;;;;27.39;46.63;99014.00;5023316;28;20027;-71
2022/07/11 11:34:54;;;;;;;1.67;1.00;;;;;;;26.88;47.72;99027.16;5023269;28;20250;-71
2022/07/11 11:37:21;;;;;;;2.88;1.00;;;;;;;27.70;47.75;99047.53;5023290;28;20096;-71
2022/07/11 11:39:47;;;;;;;1.63;1.13;;;;;;;27.55;48.35;99038.81;5023386;28;20030;-71
2022/07/11 11:42:15;;;;;;;2.10;0.90;;;;;;;27.96;48.29;99028.19;5023278;28;20026;-71
2022/07/11 11:44:48;;;;;;;2.97;1.20;;;;;;;27.64;47.62;99016.44;5023188;28;20026;-71